Time;durP1;ratioP1;P1;durP2;ratioP2;P2;SDS_P1;SDS_P2;PMS_P1;PMS_P2;Temp;Humidity;BMP_temperature;BMP_pressure;BME280_temperature;BME280_humidity;BME280_pressure;Samples;Min_cycle;Max_cycle;Signal;HPM_P1;HPM_P2
2022/03/07 07:04:41;;;;;;;5.65;4.28;;;;;;;;;;10552229;27;20474;-80
2022/03/07 07:09:42;;;;;;;5.45;4.15;;;;;;;;;;10549831;28;20051;-79
2022/03/07 07:14:43;;;;;;;4.95;3.97;;;;;;;;;;10548573;28;20039;-79
2022/03/07 07:19:44;;;;;;;6.15;4.72;;;;;;;;;;10551517;28;20104;-80
2022/03/07 07:24:45;;;;;;;5.65;4.57;;;;;;;;;;10550142;28;20025;-79
2022/03/07 07:29:46;;;;;;;7.22;4.70;;;;;;;;;;10540261;28;20099;-80
2022/03/07 07:34:48;;;;;;;5.88;4.38;;;;;;;;;;10535642;28;20063;-79
2022/03/07 07:39:49;;;;;;;6.03;3.80;;;;;;;;;;10534777;28;20032;-80
2022/03/07 07:44:50;;;;;;;6.10;4.60;;;;;;;;;;10536128;28;20032;-80
2022/03/07 07:49:51;;;;;;;6.60;5.15;;;;;;;;;;10534634;28;20060;-80
2022/03/07 07:54:52;;;;;;;;;;;;;;;;;;10535686;28;20029;-79
2022/03/07 07:59:53;;;;;;;5.93;5.07;;;;;;;;;;10534574;28;19904;-79
2022/03/07 08:04:54;;;;;;;5.00;3.85;;;;;;;;;;10537601;28;20032;-79
2022/03/07 08:09:55;;;;;;;6.68;5.07;;;;;;;;;;10534022;28;20028;-79
2022/03/07 08:14:57;;;;;;;7.28;5.78;;;;;;;;;;10510467;28;20377;-76
2022/03/07 08:19:58;;;;;;;7.45;6.35;;;;;;;;;;10510855;28;20040;-79
2022/03/07 08:24:59;;;;;;;7.55;6.20;;;;;;;;;;10512907;28;20016;-79
2022/03/07 08:30:00;;;;;;;;;;;;;;;;;;10516155;28;20055;-79
2022/03/07 08:35:01;;;;;;;7.32;5.70;;;;;;;;;;10517150;28;19911;-78
2022/03/07 08:40:04;;;;;;;5.68;4.80;;;;;;;;;;10514268;28;20106;-80
2022/03/07 08:45:06;;;;;;;7.10;4.05;;;;;;;;;;10521561;28;20028;-81
2022/03/07 08:50:08;;;;;;;6.32;4.50;;;;;;;;;;10510909;28;20060;-81
2022/03/07 08:55:09;;;;;;;6.80;4.22;;;;;;;;;;10509210;28;20111;-79
2022/03/07 09:00:10;;;;;;;;;;;;;;;;;;10511553;28;20040;-80
2022/03/07 09:05:12;;;;;;;5.95;4.72;;;;;;;;;;10506032;28;20354;-79
2022/03/07 09:10:13;;;;;;;10.43;5.30;;;;;;;;;;10504117;28;20032;-79
2022/03/07 09:15:14;;;;;;;6.03;4.70;;;;;;;;;;10504614;28;20495;-82
2022/03/07 09:20:17;;;;;;;5.72;4.53;;;;;;;;;;10504010;28;20121;-80
2022/03/07 09:25:18;;;;;;;5.32;4.03;;;;;;;;;;10504824;28;20056;-80
2022/03/07 09:30:19;;;;;;;5.72;4.38;;;;;;;;;;10505226;28;20119;-79
2022/03/07 09:35:20;;;;;;;7.75;5.75;;;;;;;;;;10504247;28;20052;-79
2022/03/07 09:40:21;;;;;;;6.40;4.35;;;;;;;;;;10505049;28;20442;-80
2022/03/07 09:45:22;;;;;;;5.28;3.70;;;;;;;;;;10505230;28;20032;-80
2022/03/07 09:50:23;;;;;;;4.22;3.13;;;;;;;;;;10504963;28;20036;-79
2022/03/07 09:55:24;;;;;;;4.75;3.28;;;;;;;;;;10502995;28;20025;-80
2022/03/07 10:00:25;;;;;;;4.38;3.28;;;;;;;;;;10501548;28;20049;-79
2022/03/07 10:05:27;;;;;;;6.47;3.78;;;;;;;;;;10504979;28;20024;-79
2022/03/07 10:10:34;;;;;;;17.65;9.13;;;;;;;;;;10517528;28;20029;-79
2022/03/07 10:15:35;;;;;;;5.65;3.80;;;;;;;;;;10513217;28;20025;-79
2022/03/07 10:20:36;;;;;;;;;;;;;;;;;;10512586;28;20028;-78
2022/03/07 10:25:38;;;;;;;3.83;3.08;;;;;;;;;;10513749;28;19914;-79
2022/03/07 10:30:39;;;;;;;3.97;2.58;;;;;;;;;;10508263;28;20028;-79
2022/03/07 10:35:42;;;;;;;4.32;2.40;;;;;;;;;;10504776;28;20032;-80
2022/03/07 10:40:47;;;;;;;20.67;15.88;;;;;;;;;;10506603;28;20032;-80
2022/03/07 10:45:55;;;;;;;3.60;2.97;;;;;;;;;;10507106;28;20073;-81
2022/03/07 10:50:57;;;;;;;3.22;2.72;;;;;;;;;;10505742;28;20028;-79
2022/03/07 10:55:59;;;;;;;3.95;2.70;;;;;;;;;;10501181;28;20406;-80
2022/03/07 11:01:01;;;;;;;4.32;2.53;;;;;;;;;;10502807;28;20135;-80
2022/03/07 11:06:03;;;;;;;3.65;2.30;;;;;;;;;;10500946;28;20032;-81
2022/03/07 11:11:04;;;;;;;5.05;2.78;;;;;;;;;;10501162;28;20028;-81
2022/03/07 11:16:05;;;;;;;8.38;5.93;;;;;;;;;;10501506;28;20029;-78
2022/03/07 11:21:06;;;;;;;3.80;2.80;;;;;;;;;;10500726;28;20029;-78
2022/03/07 11:26:11;;;;;;;3.28;2.40;;;;;;;;;;10498981;28;20573;-78
2022/03/07 11:31:18;;;;;;;4.10;2.63;;;;;;;;;;10502923;28;20086;-78
2022/03/07 11:36:21;;;;;;;4.15;2.92;;;;;;;;;;10504043;28;20067;-79
2022/03/07 11:41:23;;;;;;;3.22;2.20;;;;;;;;;;10501369;28;20048;-79
2022/03/07 11:46:25;;;;;;;4.40;3.28;;;;;;;;;;10502446;28;20347;-78
2022/03/07 11:51:27;;;;;;;3.58;3.10;;;;;;;;;;10513862;28;20085;-79
2022/03/07 11:56:29;;;;;;;4.80;3.50;;;;;;;;;;10511685;28;20060;-79
2022/03/07 12:01:32;;;;;;;5.38;4.20;;;;;;;;;;10514114;28;20045;-79
2022/03/07 12:06:40;;;;;;;4.18;3.08;;;;;;;;;;10510779;28;20029;-79
2022/03/07 12:11:41;;;;;;;4.35;3.03;;;;;;;;;;10510299;28;20036;-78
2022/03/07 12:16:43;;;;;;;3.00;2.13;;;;;;;;;;10521295;28;20064;-78
2022/03/07 12:21:43;;;;;;;;;;;;;;;;;;10510316;28;20028;-79
2022/03/07 12:26:46;;;;;;;4.65;3.03;;;;;;;;;;10514514;28;19908;-78
2022/03/07 12:32:03;;;;;;;3.75;2.10;;;;;;;;;;10518116;28;20130;-78
2022/03/07 12:37:10;;;;;;;4.68;3.38;;;;;;;;;;10517014;28;20028;-79
2022/03/07 12:42:12;;;;;;;3.92;2.10;;;;;;;;;;10521934;28;20031;-79
2022/03/07 12:47:13;;;;;;;;;;;;;;;;;;10518097;28;20035;-81
2022/03/07 12:52:21;;;;;;;3.45;1.63;;;;;;;;;;10512159;28;19915;-78
2022/03/07 12:57:26;;;;;;;5.65;1.90;;;;;;;;;;10512197;28;20024;-80
2022/03/07 13:02:38;;;;;;;8.35;3.67;;;;;;;;;;10512436;28;20154;-81
2022/03/07 13:07:39;;;;;;;3.90;2.50;;;;;;;;;;10511501;28;20383;-80
2022/03/07 13:12:40;;;;;;;;;;;;;;;;;;10511879;28;20032;-81
2022/03/07 13:17:42;;;;;;;4.53;2.58;;;;;;;;;;10513667;28;19904;-84
2022/03/07 13:22:44;;;;;;;4.95;3.15;;;;;;;;;;10512934;28;20085;-82
2022/03/07 13:28:13;;;;;;;3.60;2.90;;;;;;;;;;10544998;22;20036;-84
2022/03/07 13:33:37;;;;;;;4.50;3.60;;;;;;;;;;10448439;28;20113;-82
2022/03/07 13:38:38;;;;;;;5.03;3.10;;;;;;;;;;10497524;28;20044;-83
2022/03/07 13:43:40;;;;;;;;;;;;;;;;;;10519593;28;20035;-81
2022/03/07 13:48:41;;;;;;;2.58;1.83;;;;;;;;;;10521132;28;19927;-81
2022/03/07 13:54:16;;;;;;;4.03;2.90;;;;;;;;;;10531752;28;20048;-82
2022/03/07 13:59:18;;;;;;;3.08;2.40;;;;;;;;;;10531512;28;20046;-82
2022/03/07 14:04:24;;;;;;;4.07;2.25;;;;;;;;;;10512619;28;20032;-83
2022/03/07 14:09:25;;;;;;;3.15;2.40;;;;;;;;;;10514191;28;20029;-83
2022/03/07 14:14:26;;;;;;;4.13;2.78;;;;;;;;;;10515403;28;20025;-83
2022/03/07 14:19:27;;;;;;;;;;;;;;;;;;10519327;28;20028;-82
2022/03/07 14:24:28;;;;;;;3.83;3.22;;;;;;;;;;10532288;28;19946;-82
2022/03/07 14:29:29;;;;;;;;;;;;;;;;;;10515089;28;20070;-83
2022/03/07 14:34:30;;;;;;;4.68;2.53;;;;;;;;;;10516178;28;19908;-84
2022/03/07 14:39:31;;;;;;;6.00;3.80;;;;;;;;;;10514412;28;20040;-82
2022/03/07 14:44:32;;;;;;;3.95;2.70;;;;;;;;;;10514423;28;20036;-82
2022/03/07 14:49:36;;;;;;;;;;;;;;;;;;10515782;28;20461;-83
2022/03/07 14:54:40;;;;;;;3.72;2.40;;;;;;;;;;10514527;28;19896;-83
2022/03/07 14:59:41;;;;;;;2.90;2.20;;;;;;;;;;10517658;28;20020;-83
2022/03/07 15:04:42;;;;;;;;;;;;;;;;;;10515537;28;20030;-84
2022/03/07 15:09:48;;;;;;;3.40;2.60;;;;;;;;;;10513933;28;19972;-82
2022/03/07 15:14:51;;;;;;;5.53;2.90;;;;;;;;;;10535629;28;20033;-81
2022/03/07 15:19:57;;;;;;;3.45;2.55;;;;;;;;;;10533375;28;20199;-81
2022/03/07 15:24:58;;;;;;;2.92;1.90;;;;;;;;;;10509313;28;20023;-82
2022/03/07 15:29:59;;;;;;;3.42;2.35;;;;;;;;;;10520239;28;20045;-81
2022/03/07 15:35:00;;;;;;;;;;;;;;;;;;10526007;28;20032;-80
2022/03/07 15:40:01;;;;;;;2.33;1.67;;;;;;;;;;10525288;28;19916;-81
2022/03/07 15:45:02;;;;;;;;;;;;;;;;;;10524709;28;20067;-82
2022/03/07 15:50:05;;;;;;;2.85;2.40;;;;;;;;;;10525671;28;19932;-81
2022/03/07 15:55:10;;;;;;;2.97;2.10;;;;;;;;;;10540738;28;20016;-83
2022/03/07 16:00:11;;;;;;;4.00;1.90;;;;;;;;;;10522452;28;20025;-82
2022/03/07 16:05:12;;;;;;;2.83;2.10;;;;;;;;;;10541036;28;20049;-82
2022/03/07 16:10:14;;;;;;;3.92;2.47;;;;;;;;;;10524949;28;20025;-82
2022/03/07 16:15:15;;;;;;;3.97;3.15;;;;;;;;;;10540965;28;20024;-82
2022/03/07 16:20:16;;;;;;;2.30;1.58;;;;;;;;;;10523965;28;20048;-81
2022/03/07 16:25:17;;;;;;;2.55;1.60;;;;;;;;;;10525292;28;20036;-81
2022/03/07 16:30:20;;;;;;;3.60;2.40;;;;;;;;;;10525746;28;20100;-81
2022/03/07 16:35:21;;;;;;;5.28;3.40;;;;;;;;;;10522869;28;20047;-82
2022/03/07 16:40:25;;;;;;;;;;;;;;;;;;10542265;28;20059;-81
2022/03/07 16:45:26;;;;;;;4.20;2.33;;;;;;;;;;10526124;28;19905;-82
2022/03/07 16:50:29;;;;;;;2.85;2.03;;;;;;;;;;10523652;28;20095;-81
2022/03/07 16:55:30;;;;;;;2.92;2.10;;;;;;;;;;10523025;28;20050;-82
2022/03/07 17:00:32;;;;;;;4.22;3.42;;;;;;;;;;10522440;28;20052;-82
2022/03/07 17:05:34;;;;;;;3.53;2.45;;;;;;;;;;10523683;28;20029;-82
2022/03/07 17:10:37;;;;;;;1.95;1.40;;;;;;;;;;10515992;28;20028;-82
2022/03/07 17:15:41;;;;;;;3.30;1.75;;;;;;;;;;10524505;28;20115;-85
2022/03/07 17:20:42;;;;;;;3.97;3.13;;;;;;;;;;10513871;28;20020;-85
2022/03/07 17:25:44;;;;;;;5.07;2.58;;;;;;;;;;10523237;28;20105;-86
2022/03/07 17:30:45;;;;;;;;;;;;;;;;;;10546427;28;20032;-86
2022/03/07 17:35:46;;;;;;;3.10;1.48;;;;;;;;;;10527974;28;19888;-84
2022/03/07 17:40:49;;;;;;;3.17;2.33;;;;;;;;;;10528097;28;20037;-86
2022/03/07 17:45:51;;;;;;;2.70;1.95;;;;;;;;;;10528781;28;20088;-84
2022/03/07 17:50:52;;;;;;;3.65;2.47;;;;;;;;;;10525558;28;20039;-83
2022/03/07 17:55:59;;;;;;;6.00;3.80;;;;;;;;;;10524951;28;20021;-83
2022/03/07 18:01:00;;;;;;;6.25;5.22;;;;;;;;;;10533993;28;20035;-85
2022/03/07 18:06:01;;;;;;;5.82;4.50;;;;;;;;;;10532288;28;20019;-81
2022/03/07 18:17:04;;;;;;;3.70;2.22;;;;;;;;;;10545543;28;20028;-85
2022/03/07 18:51:35;;;;;;;3.33;2.25;;;;;;;;;;10174727;29;20044;-86
2022/03/07 18:57:18;;;;;;;2.88;2.30;;;;;;;;;;10077814;29;20089;-85
2022/03/07 19:02:58;;;;;;;5.00;2.17;;;;;;;;;;10131643;29;20116;-85
2022/03/07 19:08:21;;;;;;;4.43;3.65;;;;;;;;;;10128093;29;20100;-85
2022/03/07 19:13:46;;;;;;;4.70;4.00;;;;;;;;;;10229913;29;20083;-85
2022/03/07 19:30:19;;;;;;;2.40;1.63;;;;;;;;;;10449739;22;20045;-81
2022/03/07 19:35:20;;;;;;;3.83;3.05;;;;;;;;;;10487256;28;20084;-81
2022/03/07 19:40:20;;;;;;;;;;;;;;;;;;10454001;28;20021;-81
2022/03/07 19:45:21;;;;;;;4.43;2.65;;;;;;;;;;10444222;28;20278;-81
2022/03/07 19:50:22;;;;;;;;;;;;;;;;;;10446743;28;20129;-81
2022/03/07 19:55:23;;;;;;;3.85;3.42;;;;;;;;;;10443768;28;19905;-81
2022/03/07 20:00:25;;;;;;;4.57;2.95;;;;;;;;;;10443986;28;20033;-81
2022/03/07 20:05:25;;;;;;;4.00;3.60;;;;;;;;;;10443905;28;20025;-81
2022/03/07 20:10:27;;;;;;;5.07;3.25;;;;;;;;;;10447819;28;20029;-81
2022/03/07 20:15:27;;;;;;;;;;;;;;;;;;10452557;28;20028;-81
2022/03/07 20:20:28;;;;;;;3.55;2.67;;;;;;;;;;10452253;28;19911;-81
2022/03/07 20:25:29;;;;;;;;;;;;;;;;;;10469796;28;20475;-81
